createdAt,value
2018-09-02T00:01:17.018Z,2.20
2018-09-02T00:03:45.571Z,2.50
2018-09-02T00:06:13.913Z,2.03
2018-09-02T00:08:42.206Z,2.13
2018-09-02T00:11:10.118Z,1.87
2018-09-02T00:13:38.422Z,2.67
2018-09-02T00:16:06.828Z,2.10
2018-09-02T00:18:35.062Z,1.93
2018-09-02T00:21:03.393Z,1.83
2018-09-02T00:23:31.650Z,2.17
2018-09-02T00:25:59.705Z,1.93
2018-09-02T00:28:27.724Z,1.90
2018-09-02T00:30:55.642Z,2.30
2018-09-02T00:33:23.671Z,2.20
2018-09-02T00:35:51.737Z,2.30
2018-09-02T00:38:19.740Z,2.60
2018-09-02T00:40:47.869Z,2.20
2018-09-02T00:43:16.077Z,1.70
2018-09-02T00:45:44.160Z,2.30
2018-09-02T00:48:12.364Z,2.00
2018-09-02T00:50:40.311Z,2.30
2018-09-02T00:53:08.198Z,2.53
2018-09-02T00:55:36.173Z,2.63
2018-09-02T00:58:04.530Z,2.77
2018-09-02T01:00:32.917Z,2.23
2018-09-02T01:03:01.261Z,2.10
2018-09-02T01:05:29.280Z,2.93
2018-09-02T01:07:57.555Z,2.50
2018-09-02T01:10:25.724Z,2.30
2018-09-02T01:12:53.703Z,2.33
2018-09-02T01:15:22.040Z,2.37
2018-09-02T01:17:50.151Z,2.47
2018-09-02T01:20:18.631Z,2.10
2018-09-02T01:22:46.608Z,2.03
2018-09-02T01:25:14.945Z,2.90
2018-09-02T01:27:42.962Z,2.53
2018-09-02T01:30:10.974Z,2.33
2018-09-02T01:32:40.096Z,2.47
2018-09-02T01:35:11.151Z,2.20
2018-09-02T01:37:39.136Z,2.57
2018-09-02T01:40:06.936Z,1.83
2018-09-02T01:42:35.305Z,1.90
2018-09-02T01:45:03.370Z,2.57
2018-09-02T01:47:31.251Z,2.40
2018-09-02T01:49:59.532Z,2.43
2018-09-02T01:52:27.443Z,2.30
2018-09-02T01:54:55.593Z,2.23
2018-09-02T01:57:23.514Z,2.50
2018-09-02T01:59:51.739Z,2.50
2018-09-02T02:02:19.547Z,2.40
2018-09-02T02:04:47.343Z,2.00
2018-09-02T02:07:15.276Z,2.20
2018-09-02T02:09:43.367Z,2.30
2018-09-02T02:12:11.781Z,2.40
2018-09-02T02:14:39.969Z,2.30
2018-09-02T02:17:07.998Z,1.90
2018-09-02T02:19:36.076Z,2.27
2018-09-02T02:22:04.299Z,2.60
2018-09-02T02:24:32.348Z,2.00
2018-09-02T02:27:00.509Z,2.23
2018-09-02T02:29:28.693Z,2.03
2018-09-02T02:31:56.930Z,2.50
2018-09-02T02:34:24.721Z,2.43
2018-09-02T02:36:52.688Z,2.67
2018-09-02T02:39:20.985Z,1.90
2018-09-02T02:41:48.829Z,2.30
2018-09-02T02:44:17.025Z,2.13
2018-09-02T02:46:44.734Z,2.40
2018-09-02T02:49:13.113Z,2.40
2018-09-02T02:51:40.989Z,2.77
2018-09-02T02:54:08.961Z,2.60
2018-09-02T02:56:37.678Z,3.10
2018-09-02T02:59:06.170Z,1.93
2018-09-02T03:01:34.689Z,2.53
2018-09-02T03:04:02.907Z,2.20
2018-09-02T03:06:30.952Z,2.70
2018-09-02T03:08:58.990Z,2.70
2018-09-02T03:11:27.315Z,3.07
2018-09-02T03:13:57.007Z,3.37
2018-09-02T03:16:24.837Z,3.93
2018-09-02T03:18:53.013Z,3.00
2018-09-02T03:21:21.157Z,4.80
2018-09-02T03:23:49.197Z,4.37
2018-09-02T03:26:17.061Z,3.50
2018-09-02T03:28:45.063Z,3.90
2018-09-02T03:31:12.909Z,3.50
2018-09-02T03:33:40.752Z,4.10
2018-09-02T03:36:08.783Z,3.70
2018-09-02T03:38:36.860Z,3.40
2018-09-02T03:41:05.291Z,4.30
2018-09-02T03:43:33.648Z,4.20
2018-09-02T03:46:01.607Z,3.07
2018-09-02T03:48:29.556Z,4.10
2018-09-02T03:50:57.729Z,3.43
2018-09-02T03:53:25.729Z,3.70
2018-09-02T03:55:53.719Z,3.43
2018-09-02T03:58:22.071Z,3.40
2018-09-02T04:00:50.137Z,3.43
2018-09-02T04:03:18.256Z,3.40
2018-09-02T04:05:46.120Z,3.80
2018-09-02T04:08:14.275Z,3.10
2018-09-02T04:10:42.511Z,3.23
2018-09-02T04:13:10.841Z,3.07
2018-09-02T04:15:39.246Z,3.20
2018-09-02T04:18:07.271Z,4.07
2018-09-02T04:20:36.490Z,3.70
2018-09-02T04:23:05.548Z,4.10
2018-09-02T04:25:33.928Z,3.47
2018-09-02T04:28:01.833Z,4.80
2018-09-02T04:30:30.081Z,4.40
2018-09-02T04:32:58.431Z,4.63
2018-09-02T04:35:26.844Z,3.63
2018-09-02T04:37:55.023Z,4.57
2018-09-02T04:40:23.212Z,3.80
2018-09-02T04:42:51.542Z,3.93
2018-09-02T04:45:19.910Z,3.80
2018-09-02T04:47:47.709Z,3.90
2018-09-02T04:50:17.772Z,4.30
2018-09-02T04:52:46.005Z,4.50
2018-09-02T04:55:14.388Z,4.30
2018-09-02T04:57:43.245Z,4.03
2018-09-02T05:00:11.002Z,3.93
2018-09-02T05:02:39.309Z,3.83
2018-09-02T05:05:07.285Z,4.23
2018-09-02T05:07:35.772Z,5.20
2018-09-02T05:10:04.030Z,5.80
2018-09-02T05:12:31.973Z,7.33
2018-09-02T05:14:59.705Z,7.50
2018-09-02T05:17:29.396Z,4.70
2018-09-02T05:19:58.370Z,4.50
2018-09-02T05:22:26.425Z,4.17
2018-09-02T05:24:54.311Z,4.10
2018-09-02T05:27:22.738Z,4.50
2018-09-02T05:29:51.654Z,5.40
2018-09-02T05:32:20.272Z,4.20
2018-09-02T05:34:48.383Z,4.30
2018-09-02T05:37:16.193Z,3.70
2018-09-02T05:39:44.537Z,3.60
2018-09-02T05:42:12.529Z,4.17
2018-09-02T05:44:40.497Z,4.00
2018-09-02T05:47:08.816Z,4.63
2018-09-02T05:49:36.784Z,4.20
2018-09-02T05:52:05.440Z,5.33
2018-09-02T05:54:33.423Z,4.70
2018-09-02T05:57:01.892Z,4.60
2018-09-02T05:59:29.860Z,5.40
2018-09-02T06:01:57.702Z,5.60
2018-09-02T06:04:26.266Z,5.07
2018-09-02T06:06:54.625Z,5.30
2018-09-02T06:09:23.046Z,4.50
2018-09-02T06:11:51.200Z,4.77
2018-09-02T06:14:19.264Z,4.83
2018-09-02T06:16:47.380Z,4.93
2018-09-02T06:19:15.534Z,5.57
2018-09-02T06:21:43.541Z,5.70
2018-09-02T06:24:11.673Z,5.10
2018-09-02T06:26:40.737Z,4.97
2018-09-02T06:29:08.748Z,4.60
2018-09-02T06:31:37.270Z,4.60
2018-09-02T06:34:05.131Z,5.40
2018-09-02T06:36:33.321Z,4.83
2018-09-02T06:39:01.764Z,4.97
2018-09-02T06:41:29.963Z,5.50
2018-09-02T06:43:58.081Z,4.60
2018-09-02T06:46:26.047Z,5.53
2018-09-02T06:48:54.230Z,4.97
2018-09-02T06:51:22.771Z,4.50
2018-09-02T06:53:50.745Z,5.37
2018-09-02T06:56:18.994Z,4.63
2018-09-02T06:58:47.768Z,5.10
2018-09-02T07:01:15.581Z,4.90
2018-09-02T07:03:43.949Z,4.70
2018-09-02T07:06:13.064Z,4.03
2018-09-02T07:08:41.609Z,4.90
2018-09-02T07:11:09.661Z,4.60
2018-09-02T07:13:38.069Z,4.50
2018-09-02T07:16:06.943Z,5.10
2018-09-02T07:18:34.711Z,4.70
2018-09-02T07:21:02.673Z,5.27
2018-09-02T07:23:30.465Z,4.70
2018-09-02T07:25:58.826Z,5.03
2018-09-02T07:28:27.054Z,4.00
2018-09-02T07:30:55.542Z,6.47
2018-09-02T07:33:23.758Z,4.20
2018-09-02T07:35:51.763Z,3.93
2018-09-02T07:38:19.805Z,4.40
2018-09-02T07:40:48.016Z,4.10
2018-09-02T07:43:16.027Z,3.90
2018-09-02T07:45:44.137Z,4.30
2018-09-02T07:48:12.223Z,4.57
2018-09-02T07:50:40.152Z,4.10
2018-09-02T07:53:07.943Z,3.83
2018-09-02T07:55:35.904Z,3.80
2018-09-02T07:58:03.936Z,4.07
2018-09-02T08:00:32.630Z,4.20
2018-09-02T08:03:02.045Z,3.63
2018-09-02T08:05:30.247Z,3.70
2018-09-02T08:07:58.558Z,3.90
2018-09-02T08:10:27.337Z,3.60
2018-09-02T08:12:55.714Z,4.20
2018-09-02T08:15:23.567Z,4.77
2018-09-02T08:17:51.957Z,4.53
2018-09-02T08:20:20.913Z,4.30
2018-09-02T08:22:49.361Z,4.40
2018-09-02T08:25:17.571Z,4.17
2018-09-02T08:27:47.388Z,3.70
2018-09-02T08:30:16.263Z,4.07
2018-09-02T08:32:46.483Z,4.00
2018-09-02T08:35:14.838Z,3.80
2018-09-02T08:37:43.516Z,4.50
2018-09-02T08:40:11.557Z,4.40
2018-09-02T08:42:40.268Z,4.40
2018-09-02T08:45:09.475Z,4.50
2018-09-02T08:47:37.745Z,5.13
2018-09-02T08:50:06.370Z,4.93
2018-09-02T08:52:34.938Z,4.53
2018-09-02T08:55:03.085Z,5.10
2018-09-02T08:57:32.967Z,10.40
2018-09-02T09:00:02.043Z,10.87
2018-09-02T09:02:30.554Z,5.53
2018-09-02T09:04:59.181Z,9.97
2018-09-02T09:07:28.734Z,6.10
2018-09-02T09:09:57.970Z,6.80
2018-09-02T09:12:26.087Z,6.80
2018-09-02T09:14:54.928Z,8.20
2018-09-02T09:17:23.346Z,11.13
2018-09-02T09:19:51.842Z,42.80
2018-09-02T09:22:19.843Z,23.90
2018-09-02T09:24:47.938Z,21.60
2018-09-02T09:27:16.108Z,10.50
2018-09-02T09:29:44.186Z,8.40
2018-09-02T09:32:12.218Z,13.70
2018-09-02T09:34:41.037Z,14.40
2018-09-02T09:37:09.483Z,15.47
2018-09-02T09:39:37.816Z,20.50
2018-09-02T09:42:05.905Z,27.90
2018-09-02T09:44:33.973Z,33.80
2018-09-02T09:47:02.099Z,17.60
2018-09-02T09:49:30.699Z,12.77
2018-09-02T09:51:58.925Z,8.87
2018-09-02T09:54:27.187Z,7.10
2018-09-02T09:56:55.590Z,6.13
2018-09-02T09:59:23.461Z,10.70
2018-09-02T10:01:51.839Z,7.03
2018-09-02T10:04:19.962Z,7.10
2018-09-02T10:06:48.213Z,6.30
2018-09-02T10:09:16.659Z,4.90
2018-09-02T10:11:44.851Z,5.13
2018-09-02T10:14:13.015Z,4.50
2018-09-02T10:16:40.928Z,4.20
2018-09-02T10:19:08.947Z,4.67
2018-09-02T10:21:37.112Z,5.20
2018-09-02T10:24:05.589Z,5.43
2018-09-02T10:26:34.215Z,4.73
2018-09-02T10:29:01.970Z,5.10
2018-09-02T10:31:30.272Z,3.97
2018-09-02T10:33:58.432Z,4.20
2018-09-02T10:36:27.173Z,5.77
2018-09-02T10:38:55.598Z,6.07
2018-09-02T10:41:24.091Z,5.63
2018-09-02T10:43:52.160Z,5.30
2018-09-02T10:46:20.066Z,6.20
2018-09-02T10:48:48.382Z,5.03
2018-09-02T10:51:17.181Z,5.80
2018-09-02T10:53:46.017Z,5.83
2018-09-02T10:56:14.327Z,6.00
2018-09-02T10:58:42.470Z,6.10
2018-09-02T11:01:10.676Z,6.57
2018-09-02T11:03:39.166Z,5.00
2018-09-02T11:06:07.457Z,6.40
2018-09-02T11:08:35.650Z,6.17
2018-09-02T11:11:04.594Z,5.53
2018-09-02T11:13:33.444Z,6.07
2018-09-02T11:16:01.123Z,6.00
2018-09-02T11:18:30.445Z,5.60
2018-09-02T11:20:58.542Z,5.20
2018-09-02T11:23:26.483Z,5.50
2018-09-02T11:25:54.552Z,5.83
2018-09-02T11:28:22.677Z,7.50
2018-09-02T11:30:52.781Z,4.30
2018-09-02T11:33:21.651Z,5.10
2018-09-02T11:35:49.722Z,5.60
2018-09-02T11:38:17.969Z,4.10
2018-09-02T11:40:46.173Z,4.60
2018-09-02T11:43:14.474Z,4.10
2018-09-02T11:45:42.908Z,5.00
2018-09-02T11:48:11.235Z,3.70
2018-09-02T11:50:39.532Z,4.50
2018-09-02T11:53:08.512Z,4.10
2018-09-02T11:55:37.437Z,3.90
2018-09-02T11:58:06.860Z,3.73
2018-09-02T12:00:37.378Z,3.33
2018-09-02T12:03:06.943Z,2.87
2018-09-02T12:05:35.041Z,2.60
2018-09-02T12:08:03.583Z,2.53
2018-09-02T12:10:32.677Z,2.10
2018-09-02T12:13:01.502Z,2.20
2018-09-02T12:15:30.317Z,2.20
2018-09-02T12:17:59.485Z,2.23
2018-09-02T12:20:28.285Z,1.60
2018-09-02T12:22:58.431Z,2.93
2018-09-02T12:25:27.006Z,2.60
2018-09-02T12:27:55.215Z,1.93
2018-09-02T12:30:23.714Z,2.00
2018-09-02T12:32:53.178Z,2.17
2018-09-02T12:35:21.513Z,2.10
2018-09-02T12:37:49.614Z,2.00
2018-09-02T12:40:18.945Z,2.00
2018-09-02T12:42:47.767Z,1.80
2018-09-02T12:45:15.927Z,1.67
2018-09-02T12:47:44.361Z,1.90
2018-09-02T12:50:12.178Z,1.60
2018-09-02T12:52:41.066Z,1.30
2018-09-02T12:55:09.911Z,1.17
2018-09-02T12:57:37.890Z,1.20
2018-09-02T13:00:07.756Z,2.03
2018-09-02T13:02:36.273Z,1.97
2018-09-02T13:05:05.324Z,1.70
2018-09-02T13:07:33.736Z,2.73
2018-09-02T13:10:02.070Z,2.80
2018-09-02T13:12:30.372Z,12.10
2018-09-02T13:14:59.203Z,3.93
2018-09-02T13:17:27.198Z,2.77
2018-09-02T13:19:55.212Z,2.10
2018-09-02T13:22:24.334Z,2.83
2018-09-02T13:24:52.568Z,3.10
2018-09-02T13:27:20.828Z,2.83
2018-09-02T13:29:48.862Z,2.00
2018-09-02T13:32:16.732Z,2.33
2018-09-02T13:34:44.784Z,2.27
2018-09-02T13:37:13.490Z,1.83
2018-09-02T13:39:41.494Z,2.27
2018-09-02T13:42:09.859Z,2.40
2018-09-02T13:44:37.833Z,2.10
2018-09-02T13:47:06.053Z,2.53
2018-09-02T13:49:33.901Z,2.37
2018-09-02T13:52:02.278Z,2.20
2018-09-02T13:54:30.707Z,2.27
2018-09-02T13:57:00.151Z,2.20
2018-09-02T13:59:28.846Z,2.30
2018-09-02T14:01:56.844Z,2.63
2018-09-02T14:04:25.156Z,2.67
2018-09-02T14:06:54.152Z,2.90
2018-09-02T14:09:22.249Z,2.70
2018-09-02T14:11:50.077Z,2.67
2018-09-02T14:14:18.278Z,3.50
2018-09-02T14:16:46.978Z,3.73
2018-09-02T14:19:15.000Z,3.33
2018-09-02T14:21:43.695Z,3.20
2018-09-02T14:24:11.869Z,3.27
2018-09-02T14:26:40.143Z,3.90
2018-09-02T14:29:08.431Z,3.73
2018-09-02T14:31:36.941Z,3.77
2018-09-02T14:34:05.088Z,3.57
2018-09-02T14:36:33.917Z,4.23
2018-09-02T14:39:02.319Z,4.00
2018-09-02T14:41:30.995Z,4.60
2018-09-02T14:44:00.522Z,4.67
2018-09-02T14:46:30.182Z,4.77
2018-09-02T14:48:58.804Z,4.77
2018-09-02T14:51:27.128Z,5.07
2018-09-02T14:53:55.276Z,5.23
2018-09-02T14:56:23.573Z,6.43
2018-09-02T14:58:52.423Z,5.97
2018-09-02T15:01:20.244Z,4.80
2018-09-02T15:03:48.315Z,5.60
2018-09-02T15:06:16.549Z,4.87
2018-09-02T15:08:44.887Z,4.93
2018-09-02T15:11:13.611Z,6.37
2018-09-02T15:13:41.658Z,5.90
2018-09-02T15:16:10.165Z,4.67
2018-09-02T15:18:38.338Z,5.10
2018-09-02T15:21:07.560Z,5.00
2018-09-02T15:23:36.098Z,4.80
2018-09-02T15:26:05.294Z,5.20
2018-09-02T15:28:33.271Z,5.67
2018-09-02T15:31:01.449Z,6.00
2018-09-02T15:33:29.649Z,5.90
2018-09-02T15:35:58.371Z,4.90
2018-09-02T15:38:26.507Z,5.00
2018-09-02T15:40:55.821Z,5.30
2018-09-02T15:43:23.903Z,5.17
2018-09-02T15:45:51.921Z,5.03
2018-09-02T15:48:20.707Z,5.17
2018-09-02T15:50:49.108Z,4.93
2018-09-02T15:53:17.075Z,6.23
2018-09-02T15:55:45.400Z,17.03
2018-09-02T15:58:14.159Z,6.60
2018-09-02T16:00:42.490Z,7.30
2018-09-02T16:03:10.656Z,11.00
2018-09-02T16:05:39.028Z,8.97
2018-09-02T16:08:07.234Z,7.53
2018-09-02T16:10:35.506Z,7.10
2018-09-02T16:13:03.717Z,6.43
2018-09-02T16:15:32.161Z,9.47
2018-09-02T16:18:00.822Z,6.70
2018-09-02T16:20:28.921Z,6.20
2018-09-02T16:22:57.497Z,7.00
2018-09-02T16:25:25.651Z,7.67
2018-09-02T16:27:54.511Z,7.40
2018-09-02T16:30:23.495Z,7.67
2018-09-02T16:32:53.086Z,6.30
2018-09-02T16:35:21.296Z,7.10
2018-09-02T16:37:49.622Z,7.97
2018-09-02T16:40:18.504Z,7.40
2018-09-02T16:42:48.253Z,6.83
2018-09-02T16:45:16.603Z,7.00
2018-09-02T16:47:45.069Z,8.43
2018-09-02T16:50:14.059Z,8.77
2018-09-02T16:52:42.771Z,8.50
2018-09-02T16:55:10.820Z,9.23
2018-09-02T16:57:39.904Z,8.87
2018-09-02T17:00:08.137Z,9.20
2018-09-02T17:02:36.921Z,8.77
2018-09-02T17:05:09.737Z,8.90
2018-09-02T17:07:37.880Z,9.40
2018-09-02T17:10:07.038Z,8.90
2018-09-02T17:12:35.845Z,9.23
2018-09-02T17:15:04.361Z,8.97
2018-09-02T17:17:32.175Z,9.70
2018-09-02T17:20:00.607Z,9.17
2018-09-02T17:22:28.764Z,10.33
2018-09-02T17:24:56.968Z,9.90
2018-09-02T17:27:25.076Z,10.30
2018-09-02T17:29:53.091Z,9.60
2018-09-02T17:32:22.248Z,9.30
2018-09-02T17:34:50.820Z,9.37
2018-09-02T17:37:18.785Z,9.30
2018-09-02T17:39:47.181Z,9.40
2018-09-02T17:42:16.121Z,9.40
2018-09-02T17:44:44.339Z,10.60
2018-09-02T17:47:12.926Z,11.00
2018-09-02T17:49:41.467Z,10.23
2018-09-02T17:52:09.758Z,12.77
2018-09-02T17:54:38.320Z,14.00
2018-09-02T17:57:07.042Z,14.30
2018-09-02T17:59:34.978Z,12.47
2018-09-02T18:02:02.881Z,12.10
2018-09-02T18:04:30.846Z,14.10
2018-09-02T18:06:59.113Z,20.27
2018-09-02T18:09:27.118Z,14.40
2018-09-02T18:11:55.693Z,13.43
2018-09-02T18:14:24.700Z,13.20
2018-09-02T18:16:53.086Z,13.03
2018-09-02T18:19:22.247Z,12.93
2018-09-02T18:21:50.327Z,12.43
2018-09-02T18:24:18.589Z,12.10
2018-09-02T18:26:46.900Z,12.47
2018-09-02T18:29:15.471Z,12.90
2018-09-02T18:31:43.879Z,11.27
2018-09-02T18:34:12.745Z,12.60
2018-09-02T18:36:41.386Z,12.77
2018-09-02T18:39:10.582Z,12.37
2018-09-02T18:41:38.889Z,12.10
2018-09-02T18:44:07.811Z,13.90
2018-09-02T18:46:36.454Z,13.00
2018-09-02T18:49:05.342Z,16.73
2018-09-02T18:51:34.327Z,12.53
2018-09-02T18:54:02.255Z,12.17
2018-09-02T18:56:30.228Z,10.90
2018-09-02T18:58:58.555Z,12.23
2018-09-02T19:01:26.845Z,11.80
2018-09-02T19:03:54.850Z,12.63
2018-09-02T19:06:22.784Z,10.93
2018-09-02T19:08:51.398Z,12.40
2018-09-02T19:11:20.325Z,13.07
2018-09-02T19:13:48.660Z,12.00
2018-09-02T19:16:17.739Z,13.00
2018-09-02T19:18:45.534Z,12.87
2018-09-02T19:21:13.526Z,12.90
2018-09-02T19:23:43.248Z,13.50
2018-09-02T19:26:12.656Z,13.10
2018-09-02T19:28:41.811Z,12.90
2018-09-02T19:31:10.479Z,12.87
2018-09-02T19:33:38.703Z,13.40
2018-09-02T19:36:07.635Z,14.10
2018-09-02T19:38:36.001Z,13.10
2018-09-02T19:41:04.224Z,13.60
2018-09-02T19:43:32.752Z,12.57
2018-09-02T19:46:01.663Z,12.77
2018-09-02T19:48:30.314Z,13.37
2018-09-02T19:50:58.396Z,12.97
2018-09-02T19:53:26.549Z,12.97
2018-09-02T19:55:54.599Z,13.50
2018-09-02T19:58:23.113Z,14.50
2018-09-02T20:00:52.020Z,13.60
2018-09-02T20:03:20.621Z,13.70
2018-09-02T20:05:48.754Z,13.17
2018-09-02T20:08:16.621Z,13.67
2018-09-02T20:10:45.630Z,13.40
2018-09-02T20:13:14.065Z,13.97
2018-09-02T20:15:42.268Z,14.10
2018-09-02T20:18:10.108Z,12.63
2018-09-02T20:20:38.265Z,13.67
2018-09-02T20:23:06.294Z,13.90
2018-09-02T20:25:34.133Z,13.60
2018-09-02T20:28:02.012Z,15.20
2018-09-02T20:30:29.847Z,16.80
2018-09-02T20:32:58.643Z,15.57
2018-09-02T20:35:26.821Z,16.50
2018-09-02T20:37:54.713Z,17.20
2018-09-02T20:40:22.278Z,15.80
2018-09-02T20:42:50.394Z,15.40
2018-09-02T20:45:18.467Z,15.27
2018-09-02T20:47:46.565Z,14.53
2018-09-02T20:50:15.110Z,15.20
2018-09-02T20:52:43.090Z,14.73
2018-09-02T20:55:11.067Z,14.80
2018-09-02T20:57:38.952Z,15.77
2018-09-02T21:00:07.091Z,14.77
2018-09-02T21:02:34.994Z,15.47
2018-09-02T21:05:03.092Z,16.77
2018-09-02T21:07:30.996Z,17.50
2018-09-02T21:09:59.426Z,16.43
2018-09-02T21:12:28.086Z,16.03
2018-09-02T21:14:55.901Z,17.93
2018-09-02T21:17:24.031Z,20.53
2018-09-02T21:19:51.944Z,24.57
2018-09-02T21:22:20.098Z,22.90
2018-09-02T21:24:48.208Z,23.63
2018-09-02T21:27:16.196Z,25.43
2018-09-02T21:29:44.321Z,23.70
2018-09-02T21:32:12.781Z,25.67
2018-09-02T21:34:40.979Z,26.23
2018-09-02T21:37:09.167Z,24.70
2018-09-02T21:39:38.182Z,24.73
2018-09-02T21:42:06.550Z,25.47
2018-09-02T21:44:34.842Z,25.37
2018-09-02T21:47:03.292Z,23.77
2018-09-02T21:49:31.249Z,24.80
2018-09-02T21:51:59.295Z,22.00
2018-09-02T21:54:27.423Z,23.73
2018-09-02T21:56:55.705Z,22.90
2018-09-02T21:59:23.832Z,22.90
2018-09-02T22:01:51.947Z,22.60
2018-09-02T22:04:20.123Z,21.37
2018-09-02T22:06:47.990Z,23.03
2018-09-02T22:09:17.287Z,21.43
2018-09-02T22:11:45.261Z,22.10
2018-09-02T22:14:15.837Z,20.93
2018-09-02T22:16:44.229Z,22.70
2018-09-02T22:19:12.657Z,22.03
2018-09-02T22:21:40.762Z,21.10
2018-09-02T22:24:09.157Z,20.40
2018-09-02T22:26:37.897Z,20.30
2018-09-02T22:29:06.289Z,21.80
2018-09-02T22:31:34.779Z,21.27
2018-09-02T22:34:02.623Z,20.87
2018-09-02T22:36:30.657Z,20.93
2018-09-02T22:38:59.057Z,21.90
2018-09-02T22:41:27.395Z,21.47
2018-09-02T22:43:55.532Z,19.27
2018-09-02T22:46:23.319Z,18.77
2018-09-02T22:48:51.330Z,19.80
2018-09-02T22:51:19.381Z,19.40
2018-09-02T22:53:47.447Z,16.63
2018-09-02T22:56:15.252Z,19.10
2018-09-02T22:58:42.968Z,16.50
2018-09-02T23:01:10.706Z,16.50
2018-09-02T23:03:38.929Z,16.20
2018-09-02T23:06:06.837Z,16.10
2018-09-02T23:08:34.885Z,15.63
2018-09-02T23:11:02.945Z,16.20
2018-09-02T23:13:30.989Z,16.30
2018-09-02T23:15:58.738Z,16.90
2018-09-02T23:18:26.961Z,17.30
2018-09-02T23:20:54.959Z,15.60
2018-09-02T23:23:22.845Z,17.27
2018-09-02T23:25:51.007Z,16.53
2018-09-02T23:28:18.968Z,17.20
2018-09-02T23:30:47.021Z,16.67
2018-09-02T23:33:15.001Z,18.50
2018-09-02T23:35:42.895Z,16.27
2018-09-02T23:38:10.522Z,16.17
2018-09-02T23:40:38.311Z,16.93
2018-09-02T23:43:06.515Z,15.67
2018-09-02T23:45:34.481Z,16.47
2018-09-02T23:48:02.461Z,16.77
2018-09-02T23:50:30.262Z,15.30
2018-09-02T23:52:58.269Z,13.37
2018-09-02T23:55:26.222Z,14.37
2018-09-02T23:57:54.030Z,13.63
